createdAt,value
2022-10-09T00:00:26.016Z,81.80
2022-10-09T00:02:52.783Z,82.10
2022-10-09T00:05:20.868Z,82.00
2022-10-09T00:07:47.609Z,82.10
2022-10-09T00:10:14.330Z,82.60
2022-10-09T00:12:41.019Z,82.40
2022-10-09T00:15:08.124Z,82.70
2022-10-09T00:17:34.793Z,82.70
2022-10-09T00:20:01.531Z,82.90
2022-10-09T00:22:28.336Z,83.10
2022-10-09T00:24:55.066Z,82.60
2022-10-09T00:27:22.968Z,82.70
2022-10-09T00:29:50.277Z,82.90
2022-10-09T00:32:17.686Z,82.60
2022-10-09T00:34:44.489Z,82.80
2022-10-09T00:37:11.178Z,82.70
2022-10-09T00:39:37.890Z,82.70
2022-10-09T00:42:04.693Z,82.60
2022-10-09T00:44:57.214Z,82.60
2022-10-09T00:47:30.145Z,82.70
2022-10-09T00:50:11.450Z,82.50
2022-10-09T00:52:38.313Z,82.80
2022-10-09T00:55:06.585Z,82.80
2022-10-09T00:57:34.141Z,82.60
2022-10-09T01:00:04.654Z,82.50
2022-10-09T01:02:31.377Z,82.60
2022-10-09T01:04:58.074Z,82.20
2022-10-09T01:07:37.190Z,81.70
2022-10-09T01:10:10.112Z,81.70
2022-10-09T01:12:53.581Z,81.30
2022-10-09T01:15:27.113Z,81.60
2022-10-09T01:18:12.624Z,81.60
2022-10-09T01:20:51.544Z,81.50
2022-10-09T01:23:41.094Z,81.70
2022-10-09T01:26:16.413Z,81.60
2022-10-09T01:28:48.898Z,81.80
2022-10-09T01:31:18.399Z,81.80
2022-10-09T01:33:46.534Z,82.20
2022-10-09T01:36:14.963Z,82.20
2022-10-09T01:38:43.637Z,82.50
2022-10-09T01:41:10.570Z,82.70
2022-10-09T01:43:37.278Z,82.40
2022-10-09T01:46:26.831Z,82.30
2022-10-09T01:49:32.573Z,82.20
2022-10-09T01:52:17.891Z,82.20
2022-10-09T01:54:56.504Z,82.30
2022-10-09T01:57:47.409Z,82.60
2022-10-09T02:00:15.337Z,82.90
2022-10-09T02:02:43.328Z,83.20
2022-10-09T02:05:15.071Z,83.10
2022-10-09T02:07:41.762Z,83.30
2022-10-09T02:10:09.265Z,83.50
2022-10-09T02:12:40.174Z,83.40
2022-10-09T02:15:08.514Z,83.70
2022-10-09T02:17:39.385Z,83.90
2022-10-09T02:20:13.750Z,83.90
2022-10-09T02:22:41.312Z,83.80
2022-10-09T02:25:08.752Z,84.10
2022-10-09T02:27:36.089Z,84.40
2022-10-09T02:30:04.038Z,84.30
2022-10-09T02:32:30.773Z,84.40
2022-10-09T02:34:57.481Z,84.70
2022-10-09T02:37:24.389Z,84.80
2022-10-09T02:39:51.166Z,85.00
2022-10-09T02:42:17.943Z,85.20
2022-10-09T02:44:44.694Z,84.90
2022-10-09T02:47:11.522Z,85.20
2022-10-09T02:49:38.247Z,85.10
2022-10-09T02:52:05.008Z,85.00
2022-10-09T02:54:31.764Z,85.20
2022-10-09T02:56:58.465Z,85.30
2022-10-09T02:59:25.210Z,85.20
2022-10-09T03:01:52.834Z,85.20
2022-10-09T03:04:19.638Z,85.40
2022-10-09T03:06:46.341Z,84.70
2022-10-09T03:09:13.037Z,84.50
2022-10-09T03:11:39.725Z,84.50
2022-10-09T03:14:06.459Z,84.70
2022-10-09T03:16:33.310Z,84.40
2022-10-09T03:19:00.127Z,84.20
2022-10-09T03:21:28.837Z,84.20
2022-10-09T03:23:55.692Z,83.50
2022-10-09T03:26:24.932Z,83.30
2022-10-09T03:28:53.493Z,83.30
2022-10-09T03:31:46.907Z,83.60
2022-10-09T03:34:13.636Z,83.90
2022-10-09T03:36:40.705Z,83.40
2022-10-09T03:39:07.411Z,83.40
2022-10-09T03:41:34.245Z,83.20
2022-10-09T03:44:00.983Z,83.70
2022-10-09T03:46:28.028Z,83.30
2022-10-09T03:48:54.806Z,83.00
2022-10-09T03:51:21.492Z,83.30
2022-10-09T03:53:48.181Z,83.10
2022-10-09T03:56:14.912Z,83.30
2022-10-09T03:58:41.616Z,83.20
2022-10-09T04:01:08.468Z,82.90
2022-10-09T04:03:35.221Z,82.50
2022-10-09T04:06:02.013Z,82.70
2022-10-09T04:08:28.900Z,82.80
2022-10-09T04:10:59.617Z,82.30
2022-10-09T04:13:26.594Z,82.60
2022-10-09T04:15:53.999Z,82.30
2022-10-09T04:18:20.999Z,82.50
2022-10-09T04:20:52.386Z,82.40
2022-10-09T04:23:20.346Z,82.60
2022-10-09T04:25:48.329Z,82.40
2022-10-09T04:28:15.155Z,82.60
2022-10-09T04:30:41.941Z,82.80
2022-10-09T04:33:12.890Z,83.10
2022-10-09T04:35:44.567Z,83.20
2022-10-09T04:38:11.846Z,82.40
2022-10-09T04:40:38.606Z,82.60
2022-10-09T04:43:05.283Z,82.70
2022-10-09T04:45:32.228Z,82.80
2022-10-09T04:47:59.257Z,83.20
2022-10-09T04:50:26.038Z,83.20
2022-10-09T04:52:58.785Z,83.30
2022-10-09T04:55:25.800Z,83.60
2022-10-09T04:57:52.480Z,83.70
2022-10-09T05:00:19.249Z,83.80
2022-10-09T05:02:46.204Z,84.30
2022-10-09T05:05:13.083Z,83.90
2022-10-09T05:07:39.785Z,84.10
2022-10-09T05:10:07.497Z,84.10
2022-10-09T05:12:34.299Z,83.70
2022-10-09T05:15:01.026Z,83.40
2022-10-09T05:17:27.903Z,84.10
2022-10-09T05:19:56.543Z,83.80
2022-10-09T05:22:24.466Z,83.80
2022-10-09T05:24:54.189Z,83.60
2022-10-09T05:27:20.924Z,83.60
2022-10-09T05:29:48.879Z,83.70
2022-10-09T05:32:15.545Z,83.40
2022-10-09T05:34:42.269Z,83.60
2022-10-09T05:37:08.965Z,83.40
2022-10-09T05:39:35.997Z,83.70
2022-10-09T05:42:02.821Z,83.80
2022-10-09T05:44:29.559Z,83.90
2022-10-09T05:46:56.295Z,83.50
2022-10-09T05:49:25.529Z,83.40
2022-10-09T05:51:57.940Z,83.80
2022-10-09T05:54:24.631Z,83.60
2022-10-09T05:56:51.364Z,83.90
2022-10-09T05:59:19.837Z,83.90
2022-10-09T06:01:50.531Z,83.80
2022-10-09T06:04:21.343Z,83.70
2022-10-09T06:06:49.019Z,83.60
2022-10-09T06:09:25.380Z,83.50
2022-10-09T06:11:53.298Z,83.60
2022-10-09T06:14:24.287Z,83.40
2022-10-09T06:16:51.044Z,83.70
2022-10-09T06:19:19.546Z,83.60
2022-10-09T06:21:47.223Z,83.40
2022-10-09T06:24:28.756Z,83.30
2022-10-09T06:26:57.170Z,83.20
2022-10-09T06:29:23.942Z,83.00
2022-10-09T06:31:50.615Z,82.90
2022-10-09T06:34:17.389Z,83.30
2022-10-09T06:36:44.098Z,83.30
2022-10-09T06:39:10.867Z,83.50
2022-10-09T06:41:37.590Z,83.40
2022-10-09T06:44:22.844Z,83.50
2022-10-09T06:46:50.206Z,83.40
2022-10-09T06:49:17.265Z,83.40
2022-10-09T06:51:43.972Z,83.00
2022-10-09T06:54:13.316Z,82.80
2022-10-09T06:56:40.301Z,82.80
2022-10-09T06:59:07.954Z,82.30
2022-10-09T07:01:35.207Z,82.10
2022-10-09T07:04:07.703Z,81.90
2022-10-09T07:06:38.037Z,81.80
2022-10-09T07:09:07.522Z,81.20
2022-10-09T07:11:37.085Z,81.40
2022-10-09T07:14:06.052Z,81.60
2022-10-09T07:16:41.347Z,81.50
2022-10-09T07:19:11.013Z,82.00
2022-10-09T07:21:40.091Z,81.90
2022-10-09T07:24:07.382Z,81.70
2022-10-09T07:26:36.975Z,81.80
2022-10-09T07:29:06.268Z,81.70
2022-10-09T07:31:33.040Z,82.10
2022-10-09T07:33:59.861Z,81.80
2022-10-09T07:36:27.097Z,81.70
2022-10-09T07:38:56.393Z,81.30
2022-10-09T07:41:24.948Z,81.50
2022-10-09T07:43:51.794Z,81.90
2022-10-09T07:46:20.573Z,81.90
2022-10-09T07:48:48.125Z,81.80
2022-10-09T07:51:22.130Z,81.40
2022-10-09T07:53:50.023Z,81.30
2022-10-09T07:56:29.374Z,81.20
2022-10-09T07:59:02.006Z,80.80
2022-10-09T08:01:30.401Z,81.00
2022-10-09T08:03:58.747Z,81.30
2022-10-09T08:06:29.307Z,81.70
2022-10-09T08:08:58.180Z,81.60
2022-10-09T08:11:26.974Z,81.30
2022-10-09T08:13:54.373Z,81.40
2022-10-09T08:16:22.825Z,82.60
2022-10-09T08:18:49.871Z,81.10
2022-10-09T08:21:18.426Z,81.40
2022-10-09T08:23:45.709Z,81.50
2022-10-09T08:26:20.966Z,81.80
2022-10-09T08:29:01.982Z,81.30
2022-10-09T08:31:29.745Z,80.80
2022-10-09T08:33:58.966Z,81.30
2022-10-09T08:36:26.666Z,81.00
2022-10-09T08:38:54.204Z,81.10
2022-10-09T08:41:24.001Z,80.70
2022-10-09T08:44:13.550Z,80.30
2022-10-09T08:46:46.549Z,80.60
2022-10-09T08:49:40.857Z,80.50
2022-10-09T08:52:24.732Z,80.50
2022-10-09T08:54:55.590Z,80.90
2022-10-09T08:57:23.498Z,80.30
2022-10-09T08:59:50.314Z,79.90
2022-10-09T09:02:45.865Z,80.00
2022-10-09T09:05:30.261Z,80.60
2022-10-09T09:08:13.085Z,80.50
2022-10-09T09:10:46.774Z,80.70
2022-10-09T09:13:51.888Z,80.00
2022-10-09T09:16:40.710Z,79.80
2022-10-09T09:19:38.464Z,80.70
2022-10-09T09:22:09.968Z,80.90
2022-10-09T09:24:46.649Z,81.10
2022-10-09T09:27:26.094Z,80.80
2022-10-09T09:29:56.790Z,80.60
2022-10-09T09:32:26.270Z,80.00
2022-10-09T09:35:17.149Z,79.50
2022-10-09T09:37:43.839Z,79.80
2022-10-09T09:40:37.649Z,79.40
2022-10-09T09:43:22.512Z,79.10
2022-10-09T09:45:53.514Z,79.30
2022-10-09T09:48:37.093Z,79.60
2022-10-09T09:51:32.880Z,79.50
2022-10-09T09:54:06.416Z,79.00
2022-10-09T09:59:41.316Z,78.40
2022-10-09T10:02:11.970Z,78.00
2022-10-09T10:04:57.362Z,77.90
2022-10-09T10:07:32.342Z,77.80
2022-10-09T10:10:25.680Z,77.40
2022-10-09T10:12:52.867Z,77.20
2022-10-09T10:15:29.084Z,77.00
2022-10-09T10:18:12.295Z,77.20
2022-10-09T10:20:54.325Z,76.60
2022-10-09T10:23:42.322Z,76.40
2022-10-09T10:26:42.265Z,76.20
2022-10-09T10:29:14.312Z,76.30
2022-10-09T10:32:13.329Z,75.90
2022-10-09T10:35:17.121Z,75.60
2022-10-09T10:37:53.443Z,75.90
2022-10-09T10:40:42.166Z,75.10
2022-10-09T10:43:23.034Z,75.20
2022-10-09T10:46:23.496Z,75.50
2022-10-09T10:48:51.642Z,75.10
2022-10-09T10:51:30.394Z,74.60
2022-10-09T10:54:24.883Z,74.90
2022-10-09T10:56:59.964Z,74.80
2022-10-09T10:59:39.507Z,74.80
2022-10-09T11:02:32.914Z,75.20
2022-10-09T11:05:29.285Z,74.50
2022-10-09T11:08:27.082Z,75.10
2022-10-09T11:11:19.468Z,74.90
2022-10-09T11:14:04.573Z,74.90
2022-10-09T11:16:43.564Z,74.90
2022-10-09T11:19:22.201Z,74.90
2022-10-09T11:22:07.055Z,75.80
2022-10-09T11:25:00.159Z,75.50
2022-10-09T11:27:36.052Z,75.90
2022-10-09T11:30:17.483Z,76.30
2022-10-09T11:32:54.153Z,76.10
2022-10-09T11:35:23.013Z,76.10
2022-10-09T11:38:24.764Z,75.90
2022-10-09T11:40:52.306Z,76.40
2022-10-09T11:43:25.024Z,76.50
2022-10-09T11:46:03.742Z,76.20
2022-10-09T11:48:40.991Z,76.30
2022-10-09T11:51:42.362Z,76.00
2022-10-09T11:54:16.112Z,76.10
2022-10-09T11:56:59.973Z,76.40
2022-10-09T11:59:42.037Z,76.40
2022-10-09T12:02:21.100Z,75.80
2022-10-09T12:04:54.770Z,76.00
2022-10-09T12:07:40.766Z,76.20
2022-10-09T12:10:20.165Z,75.90
2022-10-09T12:13:06.831Z,75.40
2022-10-09T12:15:48.843Z,75.80
2022-10-09T12:18:33.122Z,75.80
2022-10-09T12:21:03.897Z,75.50
2022-10-09T12:23:34.557Z,75.40
2022-10-09T12:26:03.625Z,75.40
2022-10-09T12:28:39.297Z,75.40
2022-10-09T12:31:25.054Z,75.80
2022-10-09T12:34:00.710Z,75.80
2022-10-09T12:36:29.572Z,76.50
2022-10-09T12:38:56.781Z,76.50
2022-10-09T12:41:34.035Z,76.80
2022-10-09T12:44:02.238Z,77.00
2022-10-09T12:46:38.030Z,77.30
2022-10-09T12:49:15.064Z,76.70
2022-10-09T12:51:42.215Z,76.40
2022-10-09T12:54:10.249Z,76.80
2022-10-09T12:56:38.706Z,77.20
2022-10-09T12:59:07.337Z,78.30
2022-10-09T13:01:35.490Z,76.40
2022-10-09T13:04:05.035Z,77.30
2022-10-09T13:06:44.130Z,77.60
2022-10-09T13:09:26.954Z,76.80
2022-10-09T13:11:59.406Z,77.80
2022-10-09T13:14:34.497Z,78.50
2022-10-09T13:17:02.335Z,78.10
2022-10-09T13:19:31.523Z,78.20
2022-10-09T13:22:22.795Z,78.20
2022-10-09T13:24:54.925Z,77.90
2022-10-09T13:27:25.870Z,77.50
2022-10-09T13:29:53.074Z,78.20
2022-10-09T13:32:20.656Z,78.50
2022-10-09T13:34:47.419Z,78.30
2022-10-09T13:37:16.410Z,78.60
2022-10-09T13:39:43.470Z,78.70
2022-10-09T13:42:14.315Z,78.90
2022-10-09T13:44:41.025Z,78.70
2022-10-09T13:47:07.740Z,79.20
2022-10-09T13:49:34.463Z,79.30
2022-10-09T13:52:01.170Z,79.40
2022-10-09T13:54:27.983Z,79.40
2022-10-09T13:56:54.674Z,79.50
2022-10-09T13:59:24.422Z,79.50
2022-10-09T14:01:51.876Z,79.50
2022-10-09T14:04:19.235Z,79.70
2022-10-09T14:06:45.974Z,79.70
2022-10-09T14:09:12.682Z,80.10
2022-10-09T14:11:39.458Z,80.40
2022-10-09T14:14:06.184Z,80.60
2022-10-09T14:16:32.902Z,80.70
2022-10-09T14:19:02.015Z,80.80
2022-10-09T14:21:29.574Z,80.50
2022-10-09T14:23:58.881Z,80.10
2022-10-09T14:26:27.082Z,80.00
2022-10-09T14:28:54.762Z,79.90
2022-10-09T14:31:21.575Z,80.00
2022-10-09T14:33:48.996Z,80.20
2022-10-09T14:36:19.000Z,80.40
2022-10-09T14:38:47.133Z,80.30
2022-10-09T14:41:14.849Z,80.40
2022-10-09T14:43:41.642Z,80.70
2022-10-09T14:46:12.381Z,80.90
2022-10-09T14:48:40.109Z,81.00
2022-10-09T14:51:10.461Z,80.80
2022-10-09T14:53:37.234Z,81.20
2022-10-09T14:56:06.436Z,80.90
2022-10-09T14:58:35.350Z,80.90
2022-10-09T15:01:02.838Z,81.10
2022-10-09T15:03:30.958Z,81.10
2022-10-09T15:06:06.950Z,81.20
2022-10-09T15:08:36.276Z,81.50
2022-10-09T15:11:04.108Z,81.30
2022-10-09T15:13:33.510Z,81.30
2022-10-09T15:16:01.373Z,81.40
2022-10-09T15:18:28.850Z,81.40
2022-10-09T15:20:56.266Z,81.60
2022-10-09T15:23:23.035Z,81.60
2022-10-09T15:25:51.419Z,81.80
2022-10-09T15:28:19.078Z,81.60
2022-10-09T15:30:55.718Z,81.60
2022-10-09T15:33:22.578Z,81.90
2022-10-09T15:35:50.395Z,81.80
2022-10-09T15:38:20.200Z,81.80
2022-10-09T15:40:49.406Z,82.10
2022-10-09T15:43:18.195Z,81.80
2022-10-09T15:45:45.529Z,81.60
2022-10-09T15:48:16.490Z,82.00
2022-10-09T15:50:46.242Z,81.70
2022-10-09T15:53:14.916Z,81.70
2022-10-09T15:55:46.929Z,81.80
2022-10-09T15:58:14.469Z,82.20
2022-10-09T16:00:44.245Z,82.50
2022-10-09T16:03:11.176Z,82.70
2022-10-09T16:05:43.289Z,82.70
2022-10-09T16:08:11.368Z,82.60
2022-10-09T16:10:48.813Z,82.80
2022-10-09T16:13:16.037Z,82.80
2022-10-09T16:15:47.429Z,83.00
2022-10-09T16:18:16.136Z,82.90
2022-10-09T16:20:43.346Z,83.00
2022-10-09T16:23:10.537Z,83.00
2022-10-09T16:25:38.455Z,83.10
2022-10-09T16:28:07.277Z,83.40
2022-10-09T16:30:39.659Z,83.20
2022-10-09T16:33:11.603Z,83.40
2022-10-09T16:35:39.283Z,83.30
2022-10-09T16:38:05.998Z,83.60
2022-10-09T16:40:57.397Z,83.40
2022-10-09T16:43:20.395Z,83.40
2022-10-09T16:45:47.274Z,83.60
2022-10-09T16:48:14.046Z,83.70
2022-10-09T16:50:42.253Z,83.50
2022-10-09T16:53:09.339Z,83.80
2022-10-09T16:55:36.200Z,83.90
2022-10-09T16:58:02.991Z,83.80
2022-10-09T17:00:29.705Z,83.90
2022-10-09T17:02:57.095Z,83.80
2022-10-09T17:05:25.545Z,83.50
2022-10-09T17:07:52.751Z,83.60
2022-10-09T17:10:19.706Z,83.60
2022-10-09T17:12:46.434Z,83.80
2022-10-09T17:15:13.505Z,83.80
2022-10-09T17:17:40.861Z,83.80
2022-10-09T17:20:07.999Z,83.50
2022-10-09T17:22:34.692Z,83.60
2022-10-09T17:25:01.420Z,83.50
2022-10-09T17:27:28.101Z,83.60
2022-10-09T17:29:54.791Z,83.40
2022-10-09T17:32:21.605Z,83.60
2022-10-09T17:34:48.410Z,83.50
2022-10-09T17:37:15.122Z,83.70
2022-10-09T17:39:44.229Z,83.60
2022-10-09T17:42:12.392Z,83.60
2022-10-09T17:44:39.183Z,83.60
2022-10-09T17:47:06.176Z,83.70
2022-10-09T17:49:32.909Z,83.70
2022-10-09T17:51:59.613Z,83.70
2022-10-09T17:54:26.322Z,83.90
2022-10-09T17:56:53.009Z,83.90
2022-10-09T17:59:19.721Z,83.90
2022-10-09T18:01:47.255Z,83.70
2022-10-09T18:04:17.496Z,83.40
2022-10-09T18:06:44.808Z,83.70
2022-10-09T18:09:12.253Z,83.60
2022-10-09T18:11:38.995Z,83.70
2022-10-09T18:14:05.747Z,83.70
2022-10-09T18:16:36.811Z,84.00
2022-10-09T18:19:12.134Z,83.80
2022-10-09T18:21:41.747Z,83.70
2022-10-09T18:24:08.880Z,83.60
2022-10-09T18:26:36.012Z,83.50
2022-10-09T18:29:02.971Z,83.80
2022-10-09T18:31:29.790Z,83.70
2022-10-09T18:33:58.668Z,83.50
2022-10-09T18:36:31.232Z,83.40
2022-10-09T18:38:59.364Z,83.60
2022-10-09T18:41:26.045Z,83.70
2022-10-09T18:43:53.362Z,83.80
2022-10-09T18:46:24.751Z,83.80
2022-10-09T18:48:53.564Z,83.70
2022-10-09T18:51:24.030Z,83.80
2022-10-09T18:53:54.335Z,83.80
2022-10-09T18:56:22.184Z,83.60
2022-10-09T18:58:51.214Z,83.60
2022-10-09T19:01:18.046Z,83.70
2022-10-09T19:03:47.615Z,83.90
2022-10-09T19:06:18.017Z,84.00
2022-10-09T19:08:44.774Z,84.30
2022-10-09T19:11:14.254Z,84.20
2022-10-09T19:13:44.731Z,84.20
2022-10-09T19:16:11.602Z,84.50
2022-10-09T19:18:39.391Z,84.60
2022-10-09T19:21:06.407Z,84.40
2022-10-09T19:23:33.248Z,84.20
2022-10-09T19:26:00.284Z,84.90
2022-10-09T19:28:31.092Z,84.80
2022-10-09T19:30:58.006Z,84.80
2022-10-09T19:33:25.081Z,84.60
2022-10-09T19:35:54.362Z,84.90
2022-10-09T19:38:22.094Z,85.10
2022-10-09T19:40:49.526Z,84.90
2022-10-09T19:43:18.310Z,85.00
2022-10-09T19:45:48.646Z,85.00
2022-10-09T19:48:16.819Z,85.30
2022-10-09T19:50:45.106Z,85.20
2022-10-09T19:53:12.741Z,85.10
2022-10-09T19:55:39.570Z,85.10
2022-10-09T19:58:06.724Z,85.70
2022-10-09T20:00:33.575Z,85.20
2022-10-09T20:03:00.374Z,85.80
2022-10-09T20:05:27.133Z,85.60
2022-10-09T20:07:53.817Z,85.90
2022-10-09T20:10:20.521Z,85.60
2022-10-09T20:12:47.804Z,85.30
2022-10-09T20:15:14.844Z,85.50
2022-10-09T20:17:41.609Z,84.80
2022-10-09T20:20:08.697Z,85.10
2022-10-09T20:22:35.386Z,85.50
2022-10-09T20:25:02.399Z,85.40
2022-10-09T20:27:30.578Z,85.80
2022-10-09T20:29:57.351Z,85.50
2022-10-09T20:32:27.060Z,85.60
2022-10-09T20:34:53.822Z,86.20
2022-10-09T20:37:20.545Z,85.90
2022-10-09T20:39:47.388Z,86.20
2022-10-09T20:42:14.095Z,86.60
2022-10-09T20:44:42.340Z,86.20
2022-10-09T20:47:09.058Z,86.30
2022-10-09T20:49:35.835Z,86.30
2022-10-09T20:52:02.764Z,86.10
2022-10-09T20:54:30.380Z,86.40
2022-10-09T20:56:57.089Z,86.30
2022-10-09T20:59:23.798Z,86.40
2022-10-09T21:01:50.586Z,86.50
2022-10-09T21:04:17.292Z,86.50
2022-10-09T21:06:44.027Z,86.80
2022-10-09T21:09:10.764Z,86.70
2022-10-09T21:11:38.847Z,86.50
2022-10-09T21:14:05.652Z,86.70
2022-10-09T21:16:32.466Z,86.70
2022-10-09T21:19:03.566Z,87.00
2022-10-09T21:21:30.794Z,86.70
2022-10-09T21:23:59.012Z,87.20
2022-10-09T21:26:28.684Z,88.00
2022-10-09T21:28:59.678Z,88.60
2022-10-09T21:31:29.005Z,88.80
2022-10-09T21:33:56.394Z,88.50
2022-10-09T21:36:29.162Z,88.50
2022-10-09T21:38:55.891Z,88.60
2022-10-09T21:41:22.634Z,88.10
2022-10-09T21:43:49.316Z,87.60
2022-10-09T21:46:16.128Z,88.20
2022-10-09T21:48:42.909Z,88.40
2022-10-09T21:51:09.585Z,88.60
2022-10-09T21:53:36.363Z,88.30
2022-10-09T21:56:04.451Z,88.00
2022-10-09T21:58:31.149Z,88.00
2022-10-09T22:01:02.415Z,87.10
2022-10-09T22:03:31.522Z,87.60
2022-10-09T22:05:59.256Z,87.60
2022-10-09T22:08:26.127Z,87.50
2022-10-09T22:10:53.045Z,87.80
2022-10-09T22:13:21.134Z,87.60
2022-10-09T22:15:51.167Z,87.50
2022-10-09T22:18:18.258Z,87.60
2022-10-09T22:20:49.025Z,88.20
2022-10-09T22:23:18.032Z,87.70
2022-10-09T22:25:44.880Z,87.50
2022-10-09T22:28:11.624Z,87.90
2022-10-09T22:30:38.337Z,88.30
2022-10-09T22:33:05.132Z,87.20
2022-10-09T22:35:31.812Z,87.50
2022-10-09T22:37:58.561Z,87.90
2022-10-09T22:40:25.258Z,87.90
2022-10-09T22:42:52.461Z,88.10
2022-10-09T22:45:19.544Z,87.60
2022-10-09T22:47:49.285Z,87.20
2022-10-09T22:50:16.098Z,87.40
2022-10-09T22:52:42.768Z,86.90
2022-10-09T22:55:09.591Z,87.20
2022-10-09T22:57:36.320Z,87.30
2022-10-09T23:00:04.654Z,86.60
2022-10-09T23:02:31.326Z,87.40
2022-10-09T23:04:58.008Z,86.90
2022-10-09T23:07:24.696Z,86.60
2022-10-09T23:09:51.389Z,87.50
2022-10-09T23:12:18.060Z,87.70
2022-10-09T23:14:44.767Z,87.30
2022-10-09T23:17:11.460Z,87.30
2022-10-09T23:19:38.223Z,86.60
2022-10-09T23:22:04.952Z,87.50
2022-10-09T23:24:31.635Z,86.80
2022-10-09T23:26:58.302Z,87.10
2022-10-09T23:29:24.987Z,86.70
2022-10-09T23:31:52.573Z,87.40
2022-10-09T23:34:19.290Z,86.90
2022-10-09T23:36:45.993Z,86.80
2022-10-09T23:39:13.020Z,86.90
2022-10-09T23:41:39.851Z,86.60
2022-10-09T23:44:06.600Z,86.50
2022-10-09T23:46:33.857Z,86.60
2022-10-09T23:49:00.944Z,86.40
2022-10-09T23:51:28.391Z,86.60
2022-10-09T23:53:55.967Z,85.90
2022-10-09T23:56:29.329Z,86.60
2022-10-09T23:58:57.291Z,86.40
